AFR181 WSSS-LFPG
Flight info
| Callsign | AFR181 |
|---|---|
| Flight time | N/A |
| Altitude | 30000 |
| Route | F300 VMR B469 VPK M751 VKB A334 HTY W14 PUT L759 LEMEX/N0501F320 L759 BBS W50 LAPAN M875 DI N644 LEMOD A909 NINOP B475 DOLOS B449 MAMED P130 BODKA/N0474F340 P130 REBLO UM11 CRM UL746 ODERO DCT OPT/N0469F360 DCT IRLOX DCT BALUX DCT BEGLA DCT LAMSI DCT ASPAT DCT VIBOM DCT BETEX DCT IDOSA DCT TOLVU DCT RAPOR DCT VEDUS |
| Aircraft | B77W/H-SDE2E3FGHIJ3J5M1P2RWXYZ/LB1D1 |
Departure
| Time | 2026-05-04 13:01 |
|---|---|
| Airport | Singapore Changi Airport (WSSS) |
Arrival
| Time | N/A |
|---|---|
| Airport | Charles de Gaulle International Airport (LFPG) |
| Time | Latitude | Longitude | Altitude | Speed | Heading |
|---|---|---|---|---|---|
| 2026-05-04 11:49 | 1.36377 | 103.99026 | 35 ft | 0 kts | 292° |
| 2026-05-04 12:38 | 1.36369 | 103.99044 | 33 ft | 4 kts | 292° |
| 2026-05-04 12:38 | 1.36359 | 103.99069 | 32 ft | 4 kts | 292° |
| 2026-05-04 12:38 | 1.36350 | 103.99090 | 35 ft | 4 kts | 298° |
| 2026-05-04 12:38 | 1.36334 | 103.99103 | 32 ft | 4 kts | 5° |
| 2026-05-04 12:39 | 1.36321 | 103.99100 | 33 ft | 0 kts | 23° |
| 2026-05-04 12:39 | 1.36344 | 103.99110 | 35 ft | 4 kts | 23° |
| 2026-05-04 12:39 | 1.36366 | 103.99119 | 35 ft | 1 kts | 23° |
| 2026-05-04 12:39 | 1.36367 | 103.99120 | 35 ft | 0 kts | 23° |
| 2026-05-04 12:42 | 1.36378 | 103.99124 | 35 ft | 7 kts | 23° |
| 2026-05-04 12:43 | 1.36422 | 103.99146 | 35 ft | 7 kts | 32° |
| 2026-05-04 12:43 | 1.36458 | 103.99179 | 35 ft | 7 kts | 49° |
| 2026-05-04 12:43 | 1.36488 | 103.99217 | 35 ft | 7 kts | 52° |
| 2026-05-04 12:43 | 1.36522 | 103.99261 | 35 ft | 10 kts | 52° |
| 2026-05-04 12:44 | 1.36564 | 103.99316 | 35 ft | 10 kts | 52° |
| 2026-05-04 12:44 | 1.36593 | 103.99353 | 35 ft | 1 kts | 53° |
| 2026-05-04 12:44 | 1.36595 | 103.99358 | 35 ft | 1 kts | 66° |
| 2026-05-04 12:44 | 1.36595 | 103.99363 | 35 ft | 1 kts | 79° |
| 2026-05-04 12:45 | 1.36595 | 103.99368 | 35 ft | 1 kts | 92° |
| 2026-05-04 12:45 | 1.36591 | 103.99377 | 35 ft | 3 kts | 112° |
| 2026-05-04 12:45 | 1.36576 | 103.99408 | 35 ft | 7 kts | 115° |
| 2026-05-04 12:45 | 1.36552 | 103.99465 | 35 ft | 9 kts | 113° |
| 2026-05-04 12:46 | 1.36526 | 103.99525 | 35 ft | 9 kts | 113° |
| 2026-05-04 12:46 | 1.36501 | 103.99585 | 35 ft | 9 kts | 112° |
| 2026-05-04 12:46 | 1.36478 | 103.99640 | 35 ft | 9 kts | 112° |
| 2026-05-04 12:46 | 1.36455 | 103.99695 | 35 ft | 9 kts | 113° |
| 2026-05-04 12:47 | 1.36428 | 103.99748 | 35 ft | 9 kts | 127° |
| 2026-05-04 12:47 | 1.36377 | 103.99773 | 35 ft | 9 kts | 184° |
| 2026-05-04 12:47 | 1.36320 | 103.99752 | 35 ft | 9 kts | 202° |
| 2026-05-04 12:47 | 1.36265 | 103.99729 | 35 ft | 9 kts | 203° |
| 2026-05-04 12:48 | 1.36210 | 103.99705 | 35 ft | 9 kts | 202° |
| 2026-05-04 12:48 | 1.36154 | 103.99682 | 35 ft | 9 kts | 202° |
| 2026-05-04 12:48 | 1.36099 | 103.99659 | 35 ft | 9 kts | 203° |
| 2026-05-04 12:48 | 1.36044 | 103.99635 | 35 ft | 9 kts | 203° |
| 2026-05-04 12:49 | 1.35988 | 103.99611 | 35 ft | 9 kts | 203° |
| 2026-05-04 12:49 | 1.35933 | 103.99588 | 35 ft | 9 kts | 202° |
| 2026-05-04 12:49 | 1.35877 | 103.99565 | 35 ft | 9 kts | 202° |
| 2026-05-04 12:49 | 1.35817 | 103.99540 | 35 ft | 10 kts | 202° |
| 2026-05-04 12:50 | 1.35753 | 103.99513 | 35 ft | 10 kts | 202° |
| 2026-05-04 12:50 | 1.35690 | 103.99487 | 35 ft | 10 kts | 203° |
| 2026-05-04 12:50 | 1.35627 | 103.99459 | 35 ft | 10 kts | 203° |
| 2026-05-04 12:50 | 1.35564 | 103.99432 | 35 ft | 10 kts | 203° |
| 2026-05-04 12:51 | 1.35502 | 103.99406 | 35 ft | 10 kts | 202° |
| 2026-05-04 12:51 | 1.35438 | 103.99380 | 35 ft | 10 kts | 202° |
| 2026-05-04 12:51 | 1.35375 | 103.99354 | 35 ft | 10 kts | 203° |
| 2026-05-04 12:51 | 1.35312 | 103.99327 | 35 ft | 10 kts | 203° |
| 2026-05-04 12:52 | 1.35249 | 103.99300 | 35 ft | 10 kts | 203° |
| 2026-05-04 12:52 | 1.35184 | 103.99272 | 35 ft | 10 kts | 203° |
| 2026-05-04 12:52 | 1.35119 | 103.99244 | 35 ft | 10 kts | 203° |
| 2026-05-04 12:52 | 1.35053 | 103.99218 | 35 ft | 11 kts | 202° |
| 2026-05-04 12:53 | 1.34976 | 103.99186 | 35 ft | 12 kts | 202° |
| 2026-05-04 12:53 | 1.34898 | 103.99153 | 35 ft | 12 kts | 203° |
| 2026-05-04 12:53 | 1.34820 | 103.99120 | 35 ft | 12 kts | 202° |
| 2026-05-04 12:53 | 1.34734 | 103.99084 | 35 ft | 15 kts | 202° |
| 2026-05-04 12:54 | 1.34638 | 103.99044 | 35 ft | 15 kts | 203° |
| 2026-05-04 12:54 | 1.34542 | 103.99003 | 35 ft | 15 kts | 203° |
| 2026-05-04 12:54 | 1.34445 | 103.98962 | 35 ft | 16 kts | 203° |
| 2026-05-04 12:54 | 1.34340 | 103.98917 | 35 ft | 17 kts | 203° |
| 2026-05-04 12:55 | 1.34224 | 103.98869 | 35 ft | 19 kts | 203° |
| 2026-05-04 12:55 | 1.34099 | 103.98817 | 35 ft | 20 kts | 203° |
| 2026-05-04 12:55 | 1.33969 | 103.98762 | 35 ft | 20 kts | 202° |
| 2026-05-04 12:55 | 1.33841 | 103.98708 | 35 ft | 20 kts | 203° |
| 2026-05-04 12:56 | 1.33712 | 103.98653 | 35 ft | 20 kts | 203° |
| 2026-05-04 12:56 | 1.33582 | 103.98599 | 35 ft | 20 kts | 202° |
| 2026-05-04 12:56 | 1.33452 | 103.98543 | 35 ft | 20 kts | 203° |
| 2026-05-04 12:56 | 1.33322 | 103.98488 | 35 ft | 20 kts | 202° |
| 2026-05-04 12:57 | 1.33194 | 103.98435 | 35 ft | 20 kts | 202° |
| 2026-05-04 12:57 | 1.33066 | 103.98381 | 35 ft | 17 kts | 202° |
| 2026-05-04 12:57 | 1.32981 | 103.98357 | 35 ft | 10 kts | 174° |
| 2026-05-04 12:57 | 1.32949 | 103.98372 | 35 ft | 0 kts | 133° |
| 2026-05-04 12:58 | 1.32947 | 103.98373 | 35 ft | 2 kts | 129° |
| 2026-05-04 12:58 | 1.32929 | 103.98409 | 35 ft | 7 kts | 116° |
| 2026-05-04 12:59 | 1.32909 | 103.98455 | 35 ft | 7 kts | 109° |
| 2026-05-04 12:59 | 1.32898 | 103.98495 | 35 ft | 4 kts | 86° |
| 2026-05-04 12:59 | 1.32922 | 103.98514 | 35 ft | 5 kts | 26° |
| 2026-05-04 12:59 | 1.33029 | 103.98560 | 35 ft | 37 kts | 23° |
| 2026-05-04 13:00 | 1.33485 | 103.98754 | 35 ft | 104 kts | 23° |
| 2026-05-04 13:00 | 1.34350 | 103.99119 | 35 ft | 163 kts | 22° |
| 2026-05-04 13:00 | 1.35527 | 103.99613 | 51 ft | 203 kts | 22° |
| 2026-05-04 13:00 | 1.36817 | 104.00155 | 519 ft | 200 kts | 22° |
| 2026-05-04 13:01 | 1.38114 | 104.00708 | 921 ft | 204 kts | 22° |
| 2026-05-04 13:01 | 1.39434 | 104.01270 | 1357 ft | 208 kts | 22° |
| 2026-05-04 13:01 | 1.40768 | 104.01832 | 1849 ft | 208 kts | 22° |
| 2026-05-04 13:01 | 1.42143 | 104.02415 | 2040 ft | 223 kts | 23° |
| 2026-05-04 13:02 | 1.43607 | 104.03040 | 2330 ft | 234 kts | 23° |
| 2026-05-04 13:02 | 1.44616 | 104.03473 | 2535 ft | 242 kts | 23° |
| 2026-05-04 13:02 | 1.46211 | 104.04160 | 2792 ft | 256 kts | 22° |
| 2026-05-04 13:02 | 1.47881 | 104.04854 | 3236 ft | 262 kts | 18° |
| 2026-05-04 13:03 | 1.49697 | 104.05093 | 3539 ft | 270 kts | 347° |
| 2026-05-04 13:03 | 1.51393 | 104.04296 | 3920 ft | 269 kts | 324° |
| 2026-05-04 13:03 | 1.52976 | 104.03318 | 4588 ft | 268 kts | 329° |
| 2026-05-04 13:03 | 1.54604 | 104.02430 | 5079 ft | 273 kts | 331° |
| 2026-05-04 13:04 | 1.56296 | 104.01544 | 5637 ft | 275 kts | 331° |
| 2026-05-04 13:04 | 1.58003 | 104.00645 | 6215 ft | 277 kts | 331° |
| 2026-05-04 13:04 | 1.59715 | 103.99735 | 6741 ft | 280 kts | 331° |
| 2026-05-04 13:04 | 1.61444 | 103.98810 | 7256 ft | 283 kts | 331° |
| 2026-05-04 13:05 | 1.63185 | 103.97875 | 7769 ft | 285 kts | 331° |
| 2026-05-04 13:05 | 1.64931 | 103.96922 | 8180 ft | 287 kts | 329° |
| 2026-05-04 13:05 | 1.66670 | 103.95971 | 8514 ft | 289 kts | 330° |
| 2026-05-04 13:05 | 1.68449 | 103.95014 | 8836 ft | 291 kts | 330° |
| 2026-05-04 13:06 | 1.70240 | 103.94054 | 9175 ft | 292 kts | 330° |
| 2026-05-04 13:06 | 1.72035 | 103.93088 | 9482 ft | 295 kts | 330° |
| 2026-05-04 13:06 | 1.73857 | 103.92102 | 9730 ft | 300 kts | 330° |
| 2026-05-04 13:06 | 1.75746 | 103.91197 | 9961 ft | 303 kts | 344° |
| 2026-05-04 13:07 | 1.77822 | 103.90954 | 10309 ft | 304 kts | 356° |
| 2026-05-04 13:07 | 1.79925 | 103.90847 | 10772 ft | 302 kts | 355° |
| 2026-05-04 13:07 | 1.82034 | 103.90718 | 11031 ft | 306 kts | 355° |
| 2026-05-04 13:07 | 1.84171 | 103.90582 | 11325 ft | 309 kts | 355° |
| 2026-05-04 13:08 | 1.86321 | 103.90446 | 11670 ft | 310 kts | 355° |
| 2026-05-04 13:08 | 1.88478 | 103.90310 | 12006 ft | 311 kts | 355° |
| 2026-05-04 13:08 | 1.90652 | 103.90173 | 12349 ft | 313 kts | 355° |
| 2026-05-04 13:08 | 1.92832 | 103.90036 | 12671 ft | 315 kts | 355° |
| 2026-05-04 13:09 | 1.95032 | 103.89898 | 12993 ft | 317 kts | 355° |
| 2026-05-04 13:09 | 1.97238 | 103.89759 | 13316 ft | 319 kts | 355° |
| 2026-05-04 13:09 | 1.99462 | 103.89620 | 13642 ft | 321 kts | 355° |
| 2026-05-04 13:09 | 2.01665 | 103.89481 | 13922 ft | 322 kts | 355° |
| 2026-05-04 13:10 | 2.03918 | 103.89340 | 14221 ft | 324 kts | 355° |
| 2026-05-04 13:10 | 2.06172 | 103.89199 | 14521 ft | 325 kts | 355° |
| 2026-05-04 13:10 | 2.08436 | 103.89058 | 14820 ft | 327 kts | 356° |
| 2026-05-04 13:10 | 2.10714 | 103.88915 | 15116 ft | 328 kts | 356° |
| 2026-05-04 13:11 | 2.13000 | 103.88772 | 15413 ft | 330 kts | 356° |
| 2026-05-04 13:11 | 2.15295 | 103.88629 | 15705 ft | 331 kts | 356° |
| 2026-05-04 13:11 | 2.17606 | 103.88485 | 16010 ft | 333 kts | 356° |
| 2026-05-04 13:11 | 2.19924 | 103.88341 | 16298 ft | 334 kts | 356° |
| 2026-05-04 13:12 | 2.22254 | 103.88197 | 16580 ft | 336 kts | 356° |
| 2026-05-04 13:12 | 2.24566 | 103.88054 | 16858 ft | 337 kts | 357° |
| 2026-05-04 13:12 | 2.26920 | 103.87909 | 17125 ft | 339 kts | 357° |
| 2026-05-04 13:12 | 2.29289 | 103.87766 | 17416 ft | 340 kts | 357° |
| 2026-05-04 13:13 | 2.31657 | 103.87622 | 17675 ft | 342 kts | 357° |
| 2026-05-04 13:13 | 2.34043 | 103.87473 | 17943 ft | 343 kts | 357° |
| 2026-05-04 13:13 | 2.36403 | 103.87321 | 18202 ft | 345 kts | 357° |
| 2026-05-04 13:13 | 2.38804 | 103.87116 | 18465 ft | 350 kts | 349° |
| 2026-05-04 13:14 | 2.41111 | 103.86328 | 18800 ft | 351 kts | 335° |
| 2026-05-04 13:14 | 2.43327 | 103.85261 | 19012 ft | 355 kts | 334° |
| 2026-05-04 13:14 | 2.45554 | 103.84172 | 19205 ft | 357 kts | 334° |
| 2026-05-04 13:14 | 2.47795 | 103.83094 | 19443 ft | 358 kts | 335° |
| 2026-05-04 13:15 | 2.50050 | 103.82028 | 19683 ft | 358 kts | 335° |
| 2026-05-04 13:15 | 2.52325 | 103.80971 | 19923 ft | 360 kts | 335° |
| 2026-05-04 13:15 | 2.54583 | 103.79931 | 20110 ft | 363 kts | 335° |
| 2026-05-04 13:15 | 2.56897 | 103.78873 | 20238 ft | 367 kts | 335° |
| 2026-05-04 13:16 | 2.59229 | 103.77810 | 20414 ft | 369 kts | 336° |
| 2026-05-04 13:16 | 2.61575 | 103.76741 | 20639 ft | 371 kts | 335° |
| 2026-05-04 13:16 | 2.63962 | 103.75657 | 20698 ft | 382 kts | 335° |
| 2026-05-04 13:16 | 2.66430 | 103.74539 | 20802 ft | 395 kts | 336° |
| 2026-05-04 13:17 | 2.68975 | 103.73382 | 20905 ft | 408 kts | 336° |
| 2026-05-04 13:17 | 2.71568 | 103.72197 | 20997 ft | 420 kts | 335° |
| 2026-05-04 13:17 | 2.74264 | 103.70970 | 21077 ft | 432 kts | 336° |
| 2026-05-04 13:17 | 2.77048 | 103.69722 | 21163 ft | 443 kts | 336° |
| 2026-05-04 13:18 | 2.79892 | 103.68455 | 21281 ft | 453 kts | 336° |
| 2026-05-04 13:18 | 2.82808 | 103.67162 | 21510 ft | 459 kts | 336° |
| 2026-05-04 13:18 | 2.85701 | 103.65876 | 21891 ft | 461 kts | 336° |
| 2026-05-04 13:18 | 2.88640 | 103.64563 | 22330 ft | 462 kts | 336° |
| 2026-05-04 13:19 | 2.91580 | 103.63246 | 22716 ft | 464 kts | 336° |
| 2026-05-04 13:19 | 2.94538 | 103.61917 | 23060 ft | 467 kts | 336° |
| 2026-05-04 13:19 | 2.97514 | 103.60583 | 23394 ft | 469 kts | 336° |
| 2026-05-04 13:19 | 3.00506 | 103.59246 | 23688 ft | 472 kts | 336° |
| 2026-05-04 13:20 | 3.03479 | 103.57922 | 23964 ft | 474 kts | 336° |
| 2026-05-04 13:20 | 3.06501 | 103.56580 | 24255 ft | 476 kts | 336° |
| 2026-05-04 13:20 | 3.09538 | 103.55234 | 24529 ft | 478 kts | 336° |
| 2026-05-04 13:20 | 3.12591 | 103.53877 | 24783 ft | 480 kts | 336° |
| 2026-05-04 13:21 | 3.15656 | 103.52508 | 25054 ft | 482 kts | 336° |
| 2026-05-04 13:21 | 3.18732 | 103.51123 | 25308 ft | 485 kts | 335° |
| 2026-05-04 13:21 | 3.21777 | 103.49742 | 25560 ft | 487 kts | 335° |
| 2026-05-04 13:21 | 3.24882 | 103.48335 | 25807 ft | 490 kts | 335° |
| 2026-05-04 13:22 | 3.27994 | 103.46932 | 26036 ft | 492 kts | 335° |
| 2026-05-04 13:22 | 3.31128 | 103.45525 | 26286 ft | 494 kts | 336° |
| 2026-05-04 13:22 | 3.34275 | 103.44116 | 26541 ft | 496 kts | 335° |
| 2026-05-04 13:22 | 3.37440 | 103.42691 | 26790 ft | 498 kts | 335° |
| 2026-05-04 13:23 | 3.40619 | 103.41281 | 27009 ft | 500 kts | 336° |
| 2026-05-04 13:23 | 3.43797 | 103.39962 | 27207 ft | 502 kts | 338° |
| 2026-05-04 13:23 | 3.47049 | 103.38668 | 27439 ft | 504 kts | 338° |
| 2026-05-04 13:23 | 3.50327 | 103.37388 | 27683 ft | 505 kts | 338° |
| 2026-05-04 13:24 | 3.53617 | 103.36106 | 27904 ft | 507 kts | 338° |
| 2026-05-04 13:24 | 3.56909 | 103.34818 | 28107 ft | 509 kts | 338° |
| 2026-05-04 13:24 | 3.60212 | 103.33516 | 28304 ft | 511 kts | 338° |
| 2026-05-04 13:25 | 3.66823 | 103.30894 | 28684 ft | 515 kts | 338° |
| 2026-05-04 13:25 | 3.70166 | 103.29564 | 28865 ft | 516 kts | 338° |
| 2026-05-04 13:25 | 3.73506 | 103.28234 | 29060 ft | 517 kts | 338° |
| 2026-05-04 13:25 | 3.76851 | 103.26902 | 29293 ft | 517 kts | 338° |
| 2026-05-04 13:26 | 3.80160 | 103.25585 | 29549 ft | 517 kts | 338° |
| 2026-05-04 13:26 | 3.83508 | 103.24252 | 29781 ft | 517 kts | 338° |
| 2026-05-04 13:26 | 3.90219 | 103.21580 | 29852 ft | 517 kts | 338° |
| 2026-05-04 13:27 | 3.96928 | 103.18911 | 30080 ft | 519 kts | 338° |
| 2026-05-04 13:27 | 4.00272 | 103.17581 | 30380 ft | 516 kts | 338° |
| 2026-05-04 13:27 | 4.03599 | 103.16257 | 30714 ft | 512 kts | 338° |
| 2026-05-04 13:28 | 4.10224 | 103.13618 | 30854 ft | 510 kts | 338° |
| 2026-05-04 13:28 | 4.16792 | 103.11003 | 30875 ft | 507 kts | 338° |
| 2026-05-04 13:29 | 4.23294 | 103.08416 | 30883 ft | 505 kts | 338° |
| 2026-05-04 13:29 | 4.29822 | 103.05812 | 30886 ft | 504 kts | 338° |
| 2026-05-04 13:30 | 4.36350 | 103.03218 | 30903 ft | 505 kts | 338° |
| 2026-05-04 13:30 | 4.42890 | 103.00616 | 30904 ft | 506 kts | 338° |
| 2026-05-04 13:31 | 4.49455 | 102.98001 | 30913 ft | 507 kts | 338° |
| 2026-05-04 13:31 | 4.56029 | 102.95382 | 30898 ft | 508 kts | 338° |
| 2026-05-04 13:32 | 4.62581 | 102.92772 | 30906 ft | 508 kts | 338° |
| 2026-05-04 13:32 | 4.69150 | 102.90157 | 30904 ft | 507 kts | 338° |
| 2026-05-04 13:33 | 4.75721 | 102.87543 | 30907 ft | 506 kts | 338° |
| 2026-05-04 13:33 | 4.82243 | 102.84957 | 30908 ft | 506 kts | 338° |
| 2026-05-04 13:34 | 4.88797 | 102.82342 | 30905 ft | 505 kts | 338° |
| 2026-05-04 13:34 | 4.95284 | 102.79752 | 30906 ft | 504 kts | 338° |
| 2026-05-04 13:35 | 5.05082 | 102.75870 | 30914 ft | 504 kts | 339° |
| 2026-05-04 13:36 | 5.11580 | 102.73305 | 30900 ft | 504 kts | 339° |
| 2026-05-04 13:36 | 5.18103 | 102.70730 | 30904 ft | 503 kts | 338° |
| 2026-05-04 13:37 | 5.24617 | 102.68119 | 30907 ft | 503 kts | 338° |
| 2026-05-04 13:37 | 5.31111 | 102.65474 | 30904 ft | 503 kts | 338° |
| 2026-05-04 13:38 | 5.37608 | 102.62846 | 30901 ft | 503 kts | 338° |
| 2026-05-04 13:38 | 5.44097 | 102.60270 | 30906 ft | 504 kts | 339° |
| 2026-05-04 13:39 | 5.50599 | 102.57708 | 30901 ft | 504 kts | 338° |
| 2026-05-04 13:39 | 5.57118 | 102.55111 | 30893 ft | 504 kts | 338° |
| 2026-05-04 13:40 | 5.63615 | 102.52484 | 30907 ft | 503 kts | 338° |
| 2026-05-04 13:40 | 5.70140 | 102.49856 | 30897 ft | 504 kts | 338° |
| 2026-05-04 13:41 | 5.76667 | 102.47241 | 30895 ft | 504 kts | 338° |
| 2026-05-04 13:41 | 5.83142 | 102.44650 | 30894 ft | 504 kts | 338° |
| 2026-05-04 13:42 | 5.92893 | 102.40747 | 30883 ft | 504 kts | 338° |
| 2026-05-04 13:42 | 5.99418 | 102.38138 | 30872 ft | 503 kts | 338° |
| 2026-05-04 13:43 | 6.05925 | 102.35541 | 30861 ft | 502 kts | 338° |
| 2026-05-04 13:43 | 6.12354 | 102.32884 | 30865 ft | 502 kts | 332° |
| 2026-05-04 13:44 | 6.15206 | 102.30866 | 30850 ft | 503 kts | 315° |
| 2026-05-04 13:44 | 6.17464 | 102.28179 | 30863 ft | 504 kts | 302° |
| 2026-05-04 13:44 | 6.19055 | 102.25044 | 30849 ft | 501 kts | 290° |
| 2026-05-04 13:44 | 6.20268 | 102.21756 | 30849 ft | 503 kts | 289° |
| 2026-05-04 13:45 | 6.22735 | 102.15144 | 30904 ft | 512 kts | 291° |
| 2026-05-04 13:45 | 6.25378 | 102.08490 | 30895 ft | 512 kts | 291° |
| 2026-05-04 13:46 | 6.28032 | 102.01842 | 30895 ft | 511 kts | 291° |
| 2026-05-04 13:46 | 6.30683 | 101.95212 | 30889 ft | 510 kts | 291° |
| 2026-05-04 13:47 | 6.33325 | 101.88636 | 30885 ft | 508 kts | 291° |
| 2026-05-04 13:47 | 6.35979 | 101.82044 | 30891 ft | 506 kts | 291° |
| 2026-05-04 13:48 | 6.38607 | 101.75514 | 30893 ft | 505 kts | 291° |
| 2026-05-04 13:48 | 6.41246 | 101.68951 | 30890 ft | 505 kts | 291° |
| 2026-05-04 13:49 | 6.43436 | 101.63502 | 30894 ft | 505 kts | 291° |
| 2026-05-04 13:49 | 6.46071 | 101.56946 | 30887 ft | 505 kts | 291° |
| 2026-05-04 13:50 | 6.48704 | 101.50389 | 30888 ft | 506 kts | 291° |
| 2026-05-04 13:50 | 6.51339 | 101.43826 | 30885 ft | 506 kts | 291° |
| 2026-05-04 13:51 | 6.53967 | 101.37279 | 30886 ft | 506 kts | 291° |
| 2026-05-04 13:51 | 6.56610 | 101.30693 | 30883 ft | 507 kts | 291° |
| 2026-05-04 13:52 | 6.60553 | 101.20862 | 30882 ft | 506 kts | 291° |
| 2026-05-04 13:53 | 6.63189 | 101.14286 | 30878 ft | 506 kts | 291° |
| 2026-05-04 13:53 | 6.65811 | 101.07745 | 30880 ft | 506 kts | 291° |
| 2026-05-04 13:54 | 6.69760 | 100.97892 | 30883 ft | 505 kts | 291° |
| 2026-05-04 13:55 | 6.73709 | 100.88047 | 30889 ft | 505 kts | 291° |
| 2026-05-04 13:55 | 6.77637 | 100.78255 | 30888 ft | 505 kts | 291° |
| 2026-05-04 13:56 | 6.80246 | 100.71684 | 30882 ft | 504 kts | 291° |
| 2026-05-04 13:57 | 6.84148 | 100.61879 | 30887 ft | 505 kts | 291° |
| 2026-05-04 13:58 | 6.89412 | 100.48743 | 30882 ft | 505 kts | 292° |
| 2026-05-04 13:58 | 6.93556 | 100.39081 | 30886 ft | 501 kts | 299° |
| 2026-05-04 13:59 | 6.97432 | 100.33258 | 30901 ft | 501 kts | 307° |
| 2026-05-04 14:00 | 7.03844 | 100.24885 | 30877 ft | 504 kts | 307° |
| 2026-05-04 14:00 | 7.10225 | 100.16470 | 30874 ft | 506 kts | 307° |
| 2026-05-04 14:01 | 7.14503 | 100.10807 | 30884 ft | 506 kts | 307° |
| 2026-05-04 14:02 | 7.20794 | 100.02409 | 30857 ft | 493 kts | 305° |
| 2026-05-04 14:02 | 7.24930 | 99.96958 | 30866 ft | 485 kts | 306° |
| 2026-05-04 14:03 | 7.29011 | 99.91570 | 30868 ft | 480 kts | 305° |
| 2026-05-04 14:03 | 7.32969 | 99.86256 | 30870 ft | 474 kts | 305° |
| 2026-05-04 14:04 | 7.38907 | 99.78365 | 30878 ft | 466 kts | 305° |
| 2026-05-04 14:04 | 7.42825 | 99.73198 | 30874 ft | 462 kts | 305° |
| 2026-05-04 14:05 | 7.48640 | 99.65519 | 30875 ft | 456 kts | 304° |
| 2026-05-04 14:06 | 7.52045 | 99.60204 | 30884 ft | 453 kts | 293° |
| 2026-05-04 14:06 | 7.54625 | 99.54424 | 30878 ft | 450 kts | 291° |
| 2026-05-04 14:07 | 7.57168 | 99.48683 | 30874 ft | 446 kts | 291° |
| 2026-05-04 14:07 | 7.59746 | 99.43009 | 30878 ft | 443 kts | 291° |
| 2026-05-04 14:08 | 7.62314 | 99.37420 | 30862 ft | 440 kts | 291° |
| 2026-05-04 14:08 | 7.64883 | 99.31834 | 30863 ft | 436 kts | 291° |
| 2026-05-04 14:09 | 7.68690 | 99.23551 | 30870 ft | 431 kts | 291° |
| 2026-05-04 14:10 | 7.72436 | 99.15397 | 30868 ft | 426 kts | 291° |
| 2026-05-04 14:10 | 7.74923 | 99.09983 | 30800 ft | 424 kts | 291° |
| 2026-05-04 14:11 | 7.77405 | 99.04587 | 30667 ft | 424 kts | 291° |
| 2026-05-04 14:11 | 7.81103 | 98.96549 | 30597 ft | 421 kts | 291° |
| 2026-05-04 14:12 | 7.83570 | 98.91189 | 30490 ft | 421 kts | 291° |
| 2026-05-04 14:13 | 7.87278 | 98.83173 | 30421 ft | 419 kts | 292° |
| 2026-05-04 14:13 | 7.89739 | 98.77818 | 30202 ft | 422 kts | 291° |
| 2026-05-04 14:14 | 7.92157 | 98.72471 | 30268 ft | 418 kts | 291° |
| 2026-05-04 14:14 | 7.94562 | 98.67146 | 30157 ft | 419 kts | 291° |
| 2026-05-04 14:14 | 7.95803 | 98.64431 | 29683 ft | 429 kts | 292° |
| 2026-05-04 14:15 | 7.98183 | 98.58749 | 28770 ft | 450 kts | 290° |
| 2026-05-04 14:15 | 8.00871 | 98.52972 | 28905 ft | 463 kts | 299° |
| 2026-05-04 14:16 | 8.03878 | 98.47099 | 29007 ft | 478 kts | 296° |
| 2026-05-04 14:16 | 8.05319 | 98.44038 | 29077 ft | 485 kts | 295° |
| 2026-05-04 14:17 | 8.08149 | 98.37750 | 29196 ft | 497 kts | 295° |
| 2026-05-04 14:17 | 8.09625 | 98.34617 | 29227 ft | 500 kts | 298° |
| 2026-05-04 14:17 | 8.13610 | 98.28798 | 29327 ft | 507 kts | 311° |
| 2026-05-04 14:18 | 8.16056 | 98.26220 | 29464 ft | 508 kts | 317° |
| 2026-05-04 14:18 | 8.21275 | 98.21485 | 30021 ft | 506 kts | 318° |
| 2026-05-04 14:19 | 8.26509 | 98.16735 | 30482 ft | 504 kts | 317° |
| 2026-05-04 14:19 | 8.29098 | 98.14339 | 30659 ft | 505 kts | 317° |
| 2026-05-04 14:19 | 8.31691 | 98.11933 | 30799 ft | 506 kts | 317° |
| 2026-05-04 14:20 | 8.36905 | 98.07129 | 30887 ft | 506 kts | 317° |
| 2026-05-04 14:20 | 8.42103 | 98.02363 | 30905 ft | 504 kts | 317° |
| 2026-05-04 14:21 | 8.49848 | 97.95228 | 30911 ft | 502 kts | 316° |
| 2026-05-04 14:21 | 8.54954 | 97.90454 | 30914 ft | 503 kts | 316° |
| 2026-05-04 14:22 | 8.60113 | 97.85641 | 30913 ft | 504 kts | 317° |
| 2026-05-04 14:22 | 8.65286 | 97.80835 | 30910 ft | 505 kts | 317° |
| 2026-05-04 14:23 | 8.73045 | 97.73635 | 30909 ft | 507 kts | 317° |
| 2026-05-04 14:24 | 8.78243 | 97.68813 | 30907 ft | 507 kts | 317° |
| 2026-05-04 14:24 | 8.83455 | 97.63981 | 30906 ft | 507 kts | 316° |
| 2026-05-04 14:25 | 8.88636 | 97.59140 | 30907 ft | 506 kts | 316° |
| 2026-05-04 14:25 | 8.96385 | 97.51870 | 30904 ft | 506 kts | 316° |
| 2026-05-04 14:26 | 9.01533 | 97.47065 | 30906 ft | 505 kts | 316° |
| 2026-05-04 14:26 | 9.06710 | 97.42240 | 30907 ft | 505 kts | 316° |
| 2026-05-04 14:27 | 9.11892 | 97.37408 | 30902 ft | 506 kts | 316° |
| 2026-05-04 14:27 | 9.17066 | 97.32581 | 30904 ft | 506 kts | 316° |
| 2026-05-04 14:28 | 9.22219 | 97.27771 | 30906 ft | 506 kts | 316° |
| 2026-05-04 14:28 | 9.27408 | 97.22925 | 30904 ft | 507 kts | 316° |
| 2026-05-04 14:29 | 9.37752 | 97.13259 | 30908 ft | 507 kts | 316° |
| 2026-05-04 14:30 | 9.42945 | 97.08403 | 30908 ft | 507 kts | 316° |
| 2026-05-04 14:31 | 9.50718 | 97.01133 | 30902 ft | 507 kts | 316° |
| 2026-05-04 14:32 | 9.61070 | 96.91443 | 30902 ft | 506 kts | 316° |
| 2026-05-04 14:32 | 9.66220 | 96.86621 | 30901 ft | 506 kts | 316° |
| 2026-05-04 14:33 | 9.71393 | 96.81774 | 30905 ft | 506 kts | 316° |
| 2026-05-04 14:33 | 9.76570 | 96.76923 | 30903 ft | 506 kts | 316° |
| 2026-05-04 14:34 | 9.81743 | 96.72076 | 30903 ft | 505 kts | 316° |
| 2026-05-04 14:34 | 9.86888 | 96.67255 | 30905 ft | 505 kts | 316° |
| 2026-05-04 14:35 | 9.92055 | 96.62419 | 30905 ft | 505 kts | 316° |
| 2026-05-04 14:35 | 9.96347 | 96.58402 | 30904 ft | 505 kts | 316° |
| 2026-05-04 14:36 | 10.01418 | 96.53460 | 30911 ft | 503 kts | 311° |
| 2026-05-04 14:36 | 10.06017 | 96.48113 | 30904 ft | 503 kts | 309° |
| 2026-05-04 14:37 | 10.10600 | 96.42705 | 30911 ft | 506 kts | 310° |
| 2026-05-04 14:37 | 10.15208 | 96.37338 | 30907 ft | 508 kts | 310° |
| 2026-05-04 14:38 | 10.19891 | 96.31930 | 30905 ft | 509 kts | 310° |
| 2026-05-04 14:38 | 10.24558 | 96.26548 | 30906 ft | 509 kts | 310° |
| 2026-05-04 14:39 | 10.29241 | 96.21142 | 30906 ft | 508 kts | 310° |
| 2026-05-04 14:39 | 10.33912 | 96.15742 | 30905 ft | 507 kts | 310° |
| 2026-05-04 14:40 | 10.40856 | 96.07709 | 30906 ft | 506 kts | 310° |
| 2026-05-04 14:40 | 10.45501 | 96.02333 | 30906 ft | 506 kts | 310° |
| 2026-05-04 14:41 | 10.50125 | 95.96979 | 30907 ft | 506 kts | 310° |
| 2026-05-04 14:42 | 10.59427 | 95.86201 | 30908 ft | 507 kts | 310° |
| 2026-05-04 14:42 | 10.64083 | 95.80803 | 30908 ft | 507 kts | 310° |
| 2026-05-04 14:43 | 10.68710 | 95.75434 | 30906 ft | 507 kts | 310° |
| 2026-05-04 14:43 | 10.73365 | 95.70031 | 30905 ft | 507 kts | 310° |
| 2026-05-04 14:44 | 10.77987 | 95.64662 | 30901 ft | 508 kts | 310° |
| 2026-05-04 14:44 | 10.82650 | 95.59244 | 30906 ft | 509 kts | 310° |
| 2026-05-04 14:45 | 10.87320 | 95.53815 | 30909 ft | 509 kts | 310° |
| 2026-05-04 14:45 | 10.91966 | 95.48413 | 30912 ft | 508 kts | 310° |
| 2026-05-04 14:46 | 10.96616 | 95.43003 | 30898 ft | 505 kts | 310° |
| 2026-05-04 14:46 | 11.01222 | 95.37639 | 30901 ft | 502 kts | 310° |
| 2026-05-04 14:47 | 11.05793 | 95.32312 | 30906 ft | 500 kts | 310° |
| 2026-05-04 14:47 | 11.10368 | 95.26980 | 30906 ft | 499 kts | 310° |
| 2026-05-04 14:48 | 11.14948 | 95.21640 | 30907 ft | 499 kts | 310° |
| 2026-05-04 14:48 | 11.19519 | 95.16308 | 30909 ft | 500 kts | 310° |
| 2026-05-04 14:49 | 11.24076 | 95.10990 | 30908 ft | 501 kts | 310° |
| 2026-05-04 14:49 | 11.28666 | 95.05629 | 30912 ft | 502 kts | 310° |
| 2026-05-04 14:50 | 11.33268 | 95.00254 | 30909 ft | 502 kts | 309° |
| 2026-05-04 14:50 | 11.37864 | 94.94880 | 30912 ft | 502 kts | 309° |
| 2026-05-04 14:51 | 11.42422 | 94.89549 | 30909 ft | 502 kts | 309° |
| 2026-05-04 14:51 | 11.47013 | 94.84178 | 30907 ft | 501 kts | 309° |
| 2026-05-04 14:52 | 11.51594 | 94.78815 | 30905 ft | 500 kts | 309° |
| 2026-05-04 14:52 | 11.56164 | 94.73463 | 30907 ft | 499 kts | 309° |
| 2026-05-04 14:53 | 11.60696 | 94.68154 | 30909 ft | 499 kts | 309° |
| 2026-05-04 14:53 | 11.65265 | 94.62800 | 30910 ft | 499 kts | 309° |
| 2026-05-04 14:54 | 11.69831 | 94.57449 | 30909 ft | 499 kts | 309° |
| 2026-05-04 14:54 | 11.74357 | 94.52148 | 30915 ft | 498 kts | 309° |
| 2026-05-04 14:55 | 11.78911 | 94.46820 | 30906 ft | 498 kts | 309° |
| 2026-05-04 14:55 | 11.83480 | 94.41491 | 30896 ft | 494 kts | 311° |
| 2026-05-04 14:56 | 11.88369 | 94.36560 | 30908 ft | 494 kts | 314° |
| 2026-05-04 14:56 | 11.93295 | 94.31699 | 30909 ft | 496 kts | 314° |
| 2026-05-04 14:57 | 11.98281 | 94.26770 | 30914 ft | 499 kts | 314° |
| 2026-05-04 14:57 | 12.03272 | 94.21825 | 30921 ft | 499 kts | 314° |
| 2026-05-04 14:58 | 12.08230 | 94.16912 | 30904 ft | 498 kts | 314° |
| 2026-05-04 14:58 | 12.13201 | 94.11986 | 30904 ft | 496 kts | 314° |
| 2026-05-04 14:59 | 12.18158 | 94.07082 | 30908 ft | 494 kts | 314° |
| 2026-05-04 15:00 | 12.25542 | 93.99742 | 30907 ft | 492 kts | 314° |
| 2026-05-04 15:00 | 12.30463 | 93.94865 | 30915 ft | 493 kts | 314° |
| 2026-05-04 15:01 | 12.37862 | 93.87573 | 30913 ft | 495 kts | 314° |
| 2026-05-04 15:01 | 12.42834 | 93.82679 | 30912 ft | 495 kts | 314° |
| 2026-05-04 15:02 | 12.47784 | 93.77802 | 30909 ft | 496 kts | 314° |
| 2026-05-04 15:02 | 12.52757 | 93.72898 | 30910 ft | 496 kts | 314° |
| 2026-05-04 15:03 | 12.57740 | 93.67981 | 30912 ft | 497 kts | 314° |
| 2026-05-04 15:03 | 12.62714 | 93.63070 | 30913 ft | 497 kts | 314° |
| 2026-05-04 15:04 | 12.67694 | 93.58150 | 30909 ft | 496 kts | 314° |
| 2026-05-04 15:04 | 12.72649 | 93.53253 | 30909 ft | 496 kts | 314° |
| 2026-05-04 15:05 | 12.77621 | 93.48335 | 30913 ft | 496 kts | 314° |
| 2026-05-04 15:05 | 12.82586 | 93.43422 | 30907 ft | 495 kts | 314° |
| 2026-05-04 15:06 | 12.87507 | 93.38550 | 30911 ft | 494 kts | 314° |
| 2026-05-04 15:07 | 12.94932 | 93.31192 | 30911 ft | 493 kts | 314° |
| 2026-05-04 15:07 | 12.99841 | 93.26324 | 30910 ft | 493 kts | 314° |
| 2026-05-04 15:08 | 13.04780 | 93.21424 | 30911 ft | 493 kts | 314° |
| 2026-05-04 15:08 | 13.09713 | 93.16528 | 30912 ft | 494 kts | 314° |
| 2026-05-04 15:09 | 13.14650 | 93.11625 | 30917 ft | 494 kts | 314° |
| 2026-05-04 15:09 | 13.19588 | 93.06717 | 30910 ft | 494 kts | 314° |
| 2026-05-04 15:10 | 13.26963 | 92.99382 | 30913 ft | 493 kts | 314° |
| 2026-05-04 15:11 | 13.34359 | 92.92021 | 30917 ft | 493 kts | 314° |
| 2026-05-04 15:11 | 13.39286 | 92.87113 | 30916 ft | 493 kts | 314° |
| 2026-05-04 15:12 | 13.44187 | 92.82229 | 30913 ft | 493 kts | 314° |
| 2026-05-04 15:12 | 13.49107 | 92.77323 | 30913 ft | 492 kts | 314° |
| 2026-05-04 15:13 | 13.54026 | 92.72415 | 30908 ft | 492 kts | 314° |
| 2026-05-04 15:13 | 13.58904 | 92.67546 | 30909 ft | 491 kts | 314° |
| 2026-05-04 15:14 | 13.63808 | 92.62647 | 30907 ft | 490 kts | 314° |
| 2026-05-04 15:14 | 13.68681 | 92.57778 | 30910 ft | 490 kts | 314° |
| 2026-05-04 15:15 | 13.73582 | 92.52879 | 30916 ft | 490 kts | 314° |
| 2026-05-04 15:15 | 13.78483 | 92.47980 | 30912 ft | 490 kts | 314° |
| 2026-05-04 15:16 | 13.85809 | 92.40658 | 30913 ft | 491 kts | 313° |
| 2026-05-04 15:17 | 13.93155 | 92.33312 | 30909 ft | 490 kts | 313° |
| 2026-05-04 15:17 | 14.00309 | 92.25828 | 30907 ft | 489 kts | 311° |
| 2026-05-04 15:18 | 14.05044 | 92.20775 | 30912 ft | 490 kts | 312° |
| 2026-05-04 15:19 | 14.12194 | 92.13239 | 30913 ft | 490 kts | 312° |
| 2026-05-04 15:19 | 14.19330 | 92.05743 | 30909 ft | 490 kts | 312° |
| 2026-05-04 15:20 | 14.24105 | 92.00717 | 30913 ft | 490 kts | 312° |
| 2026-05-04 15:20 | 14.28885 | 91.95713 | 30911 ft | 490 kts | 312° |
| 2026-05-04 15:21 | 14.33688 | 91.90776 | 30916 ft | 490 kts | 313° |
| 2026-05-04 15:22 | 14.40968 | 91.83330 | 30913 ft | 491 kts | 313° |
| 2026-05-04 15:22 | 14.48223 | 91.75894 | 30910 ft | 491 kts | 313° |
| 2026-05-04 15:23 | 14.53071 | 91.70918 | 30910 ft | 491 kts | 313° |
| 2026-05-04 15:23 | 14.57096 | 91.66783 | 30916 ft | 491 kts | 313° |
| 2026-05-04 15:24 | 14.66781 | 91.56825 | 30910 ft | 491 kts | 313° |
| 2026-05-04 15:25 | 14.71602 | 91.51864 | 30910 ft | 491 kts | 313° |
| 2026-05-04 15:26 | 14.78879 | 91.44369 | 30912 ft | 491 kts | 313° |
| 2026-05-04 15:26 | 14.86121 | 91.36902 | 30909 ft | 492 kts | 313° |
| 2026-05-04 15:27 | 14.93386 | 91.29406 | 30915 ft | 492 kts | 313° |
| 2026-05-04 15:28 | 15.00624 | 91.21928 | 30908 ft | 492 kts | 312° |
| 2026-05-04 15:29 | 15.07888 | 91.14417 | 30907 ft | 491 kts | 312° |
| 2026-05-04 15:30 | 15.24778 | 90.96921 | 30909 ft | 491 kts | 312° |
| 2026-05-04 15:31 | 15.31995 | 90.89433 | 30909 ft | 491 kts | 312° |
| 2026-05-04 15:32 | 15.44037 | 90.76922 | 30910 ft | 491 kts | 312° |
| 2026-05-04 15:34 | 15.56071 | 90.64400 | 30910 ft | 490 kts | 312° |
| 2026-05-04 15:34 | 15.63302 | 90.56864 | 30909 ft | 490 kts | 312° |
| 2026-05-04 15:35 | 15.70497 | 90.49360 | 30909 ft | 490 kts | 312° |
| 2026-05-04 15:36 | 15.77705 | 90.41836 | 30909 ft | 489 kts | 312° |
| 2026-05-04 15:36 | 15.82480 | 90.36848 | 30913 ft | 489 kts | 312° |
| 2026-05-04 15:37 | 15.87286 | 90.31828 | 30910 ft | 489 kts | 312° |
| 2026-05-04 15:37 | 15.92095 | 90.26803 | 30907 ft | 489 kts | 312° |
| 2026-05-04 15:38 | 15.96901 | 90.21789 | 30910 ft | 489 kts | 312° |
| 2026-05-04 15:38 | 16.01665 | 90.16801 | 30910 ft | 488 kts | 312° |
| 2026-05-04 15:39 | 16.06476 | 90.11810 | 30911 ft | 488 kts | 312° |
| 2026-05-04 15:40 | 16.13751 | 90.04369 | 30907 ft | 488 kts | 313° |
| 2026-05-04 15:40 | 16.18572 | 89.99447 | 30910 ft | 489 kts | 313° |
| 2026-05-04 15:41 | 16.23434 | 89.94475 | 30906 ft | 489 kts | 312° |
| 2026-05-04 15:41 | 16.28267 | 89.89526 | 30908 ft | 489 kts | 312° |
| 2026-05-04 15:42 | 16.33118 | 89.84555 | 30909 ft | 489 kts | 312° |
| 2026-05-04 15:42 | 16.37973 | 89.79575 | 30911 ft | 489 kts | 312° |
| 2026-05-04 15:43 | 16.42801 | 89.74619 | 30906 ft | 490 kts | 312° |
| 2026-05-04 15:43 | 16.47660 | 89.69630 | 30908 ft | 490 kts | 312° |
| 2026-05-04 15:44 | 16.52515 | 89.64641 | 30907 ft | 490 kts | 312° |
| 2026-05-04 15:44 | 16.57363 | 89.59654 | 30907 ft | 490 kts | 312° |
| 2026-05-04 15:45 | 16.62221 | 89.54654 | 30906 ft | 489 kts | 312° |
| 2026-05-04 15:45 | 16.67039 | 89.49691 | 30907 ft | 489 kts | 312° |
| 2026-05-04 15:46 | 16.71889 | 89.44692 | 30910 ft | 490 kts | 312° |
| 2026-05-04 15:46 | 16.76744 | 89.39685 | 30908 ft | 490 kts | 312° |
| 2026-05-04 15:47 | 16.81567 | 89.34707 | 30908 ft | 490 kts | 312° |
| 2026-05-04 15:47 | 16.86421 | 89.29694 | 30908 ft | 491 kts | 312° |
| 2026-05-04 15:48 | 16.91278 | 89.24674 | 30907 ft | 491 kts | 312° |
| 2026-05-04 15:48 | 16.98535 | 89.17169 | 30904 ft | 491 kts | 312° |
| 2026-05-04 15:49 | 17.03405 | 89.12129 | 30905 ft | 491 kts | 312° |
| 2026-05-04 15:49 | 17.08260 | 89.07104 | 30905 ft | 491 kts | 312° |
| 2026-05-04 15:50 | 17.13096 | 89.02103 | 30910 ft | 491 kts | 312° |
| 2026-05-04 15:50 | 17.17974 | 88.97056 | 30892 ft | 491 kts | 312° |
| 2026-05-04 15:51 | 17.22796 | 88.92058 | 30912 ft | 491 kts | 312° |
| 2026-05-04 15:51 | 17.27682 | 88.87045 | 30909 ft | 491 kts | 313° |
| 2026-05-04 15:52 | 17.32581 | 88.82047 | 30908 ft | 491 kts | 313° |
| 2026-05-04 15:52 | 17.37454 | 88.77077 | 30909 ft | 492 kts | 313° |
| 2026-05-04 15:53 | 17.42371 | 88.72056 | 30901 ft | 492 kts | 312° |
| 2026-05-04 15:53 | 17.47275 | 88.67044 | 30913 ft | 492 kts | 312° |
| 2026-05-04 15:54 | 17.52145 | 88.62060 | 30902 ft | 492 kts | 312° |
| 2026-05-04 15:54 | 17.57042 | 88.57045 | 30919 ft | 491 kts | 312° |
| 2026-05-04 15:55 | 17.61906 | 88.52061 | 30904 ft | 491 kts | 312° |
| 2026-05-04 15:55 | 17.66802 | 88.47039 | 30906 ft | 491 kts | 312° |
| 2026-05-04 15:56 | 17.71693 | 88.42018 | 30912 ft | 491 kts | 312° |
| 2026-05-04 15:56 | 17.76556 | 88.37023 | 30911 ft | 491 kts | 312° |
| 2026-05-04 15:57 | 17.81441 | 88.32002 | 30909 ft | 492 kts | 312° |
| 2026-05-04 15:57 | 17.86335 | 88.26967 | 30903 ft | 492 kts | 312° |
| 2026-05-04 15:58 | 17.91223 | 88.21935 | 30904 ft | 492 kts | 312° |
| 2026-05-04 15:58 | 17.96131 | 88.16878 | 30907 ft | 492 kts | 312° |
| 2026-05-04 15:59 | 18.01015 | 88.11843 | 30900 ft | 492 kts | 312° |
| 2026-05-04 15:59 | 18.05870 | 88.06835 | 30904 ft | 492 kts | 312° |
| 2026-05-04 16:00 | 18.10755 | 88.01794 | 30909 ft | 492 kts | 311° |
| 2026-05-04 16:00 | 18.14019 | 87.98424 | 30906 ft | 491 kts | 311° |
| 2026-05-04 16:01 | 18.19224 | 87.93049 | 30903 ft | 491 kts | 311° |
| 2026-05-04 16:01 | 18.24101 | 87.88021 | 30901 ft | 491 kts | 311° |
| 2026-05-04 16:02 | 18.28974 | 87.82976 | 30896 ft | 490 kts | 311° |
| 2026-05-04 16:03 | 18.36256 | 87.75483 | 30901 ft | 490 kts | 312° |
| 2026-05-04 16:03 | 18.41163 | 87.70474 | 30898 ft | 491 kts | 312° |
| 2026-05-04 16:04 | 18.46076 | 87.65466 | 30906 ft | 490 kts | 311° |
| 2026-05-04 16:04 | 18.53387 | 87.58001 | 30897 ft | 489 kts | 311° |
| 2026-05-04 16:05 | 18.58274 | 87.53002 | 30897 ft | 488 kts | 311° |
| 2026-05-04 16:06 | 18.65580 | 87.45522 | 30898 ft | 488 kts | 311° |
| 2026-05-04 16:07 | 18.75296 | 87.35560 | 30900 ft | 487 kts | 311° |
| 2026-05-04 16:08 | 18.85030 | 87.25564 | 30898 ft | 488 kts | 311° |
| 2026-05-04 16:09 | 18.97186 | 87.13058 | 30899 ft | 488 kts | 311° |
| 2026-05-04 16:10 | 19.06884 | 87.03061 | 30893 ft | 487 kts | 311° |
| 2026-05-04 16:11 | 19.16562 | 86.93069 | 30896 ft | 487 kts | 311° |
| 2026-05-04 16:12 | 19.30281 | 86.78875 | 30890 ft | 486 kts | 311° |
| 2026-05-04 16:13 | 19.39935 | 86.68871 | 30885 ft | 486 kts | 311° |
| 2026-05-04 16:14 | 19.49575 | 86.58870 | 30886 ft | 486 kts | 311° |
| 2026-05-04 16:16 | 19.61664 | 86.46322 | 30882 ft | 487 kts | 311° |
| 2026-05-04 16:17 | 19.73660 | 86.33675 | 30872 ft | 488 kts | 311° |
| 2026-05-04 16:18 | 19.83320 | 86.23532 | 30869 ft | 487 kts | 311° |
| 2026-05-04 16:19 | 19.95392 | 86.10992 | 30868 ft | 486 kts | 312° |
| 2026-05-04 16:20 | 20.07597 | 85.98528 | 30860 ft | 486 kts | 311° |
| 2026-05-04 16:22 | 20.19754 | 85.86043 | 30856 ft | 486 kts | 311° |
| 2026-05-04 16:23 | 20.34166 | 85.70956 | 30858 ft | 483 kts | 310° |
| 2026-05-04 16:25 | 20.48496 | 85.55853 | 30860 ft | 483 kts | 310° |
| 2026-05-04 16:26 | 20.65179 | 85.38248 | 30871 ft | 482 kts | 310° |
| 2026-05-04 16:28 | 20.77115 | 85.25620 | 30886 ft | 483 kts | 310° |
| 2026-05-04 16:29 | 20.93699 | 85.08035 | 30878 ft | 479 kts | 310° |
| 2026-05-04 16:31 | 21.05522 | 84.95492 | 30880 ft | 478 kts | 310° |
| 2026-05-04 16:32 | 21.19896 | 84.80520 | 30907 ft | 484 kts | 312° |
| 2026-05-04 16:33 | 21.29632 | 84.70492 | 30901 ft | 486 kts | 312° |
| 2026-05-04 16:34 | 21.36908 | 84.62973 | 30899 ft | 485 kts | 312° |
| 2026-05-04 16:35 | 21.51470 | 84.47896 | 30912 ft | 485 kts | 311° |
| 2026-05-04 16:36 | 21.58757 | 84.40336 | 30925 ft | 484 kts | 311° |
| 2026-05-04 16:37 | 21.66001 | 84.32813 | 30910 ft | 484 kts | 311° |
| 2026-05-04 16:38 | 21.75702 | 84.22727 | 30907 ft | 484 kts | 311° |
| 2026-05-04 16:39 | 21.87775 | 84.10170 | 30822 ft | 480 kts | 312° |
| 2026-05-04 16:40 | 21.93235 | 84.06042 | 30834 ft | 488 kts | 327° |
| 2026-05-04 16:40 | 21.99613 | 84.03355 | 30864 ft | 496 kts | 338° |
| 2026-05-04 16:41 | 22.16288 | 83.97947 | 30890 ft | 504 kts | 338° |
| 2026-05-04 16:43 | 22.32977 | 83.92414 | 30918 ft | 499 kts | 337° |
| 2026-05-04 16:43 | 22.42883 | 83.88961 | 30931 ft | 499 kts | 337° |
| 2026-05-04 16:45 | 22.62865 | 83.82018 | 30957 ft | 506 kts | 338° |
| 2026-05-04 16:46 | 22.79710 | 83.76186 | 30974 ft | 510 kts | 338° |
| 2026-05-04 16:47 | 22.93229 | 83.71493 | 30969 ft | 510 kts | 338° |
| 2026-05-04 16:48 | 23.06715 | 83.66799 | 30981 ft | 513 kts | 337° |
| 2026-05-04 16:49 | 23.20394 | 83.62033 | 30979 ft | 518 kts | 337° |
| 2026-05-04 16:50 | 23.34149 | 83.57234 | 30960 ft | 519 kts | 336° |
| 2026-05-04 16:51 | 23.44463 | 83.53629 | 30951 ft | 518 kts | 336° |
| 2026-05-04 16:52 | 23.58198 | 83.48832 | 30939 ft | 518 kts | 336° |
| 2026-05-04 16:53 | 23.68481 | 83.45189 | 30924 ft | 517 kts | 332° |
| 2026-05-04 16:53 | 23.76983 | 83.38565 | 30914 ft | 494 kts | 302° |
| 2026-05-04 16:54 | 23.79079 | 83.35647 | 30896 ft | 488 kts | 300° |
| 2026-05-04 16:55 | 23.91638 | 83.17817 | 30888 ft | 493 kts | 301° |
| 2026-05-04 16:56 | 24.02159 | 83.03161 | 30872 ft | 486 kts | 301° |
| 2026-05-04 16:57 | 24.08390 | 82.94445 | 30874 ft | 484 kts | 301° |
| 2026-05-04 16:58 | 24.16696 | 82.82802 | 30865 ft | 486 kts | 301° |
| 2026-05-04 17:00 | 24.28514 | 82.66196 | 30851 ft | 489 kts | 301° |
| 2026-05-04 17:01 | 24.38932 | 82.51513 | 30845 ft | 487 kts | 301° |
| 2026-05-04 17:02 | 24.47211 | 82.39811 | 30850 ft | 486 kts | 301° |
| 2026-05-04 17:03 | 24.53430 | 82.31003 | 30839 ft | 485 kts | 301° |
| 2026-05-04 17:03 | 24.59568 | 82.22296 | 30827 ft | 481 kts | 301° |
| 2026-05-04 17:04 | 24.67722 | 82.10700 | 30831 ft | 478 kts | 301° |
| 2026-05-04 17:05 | 24.75853 | 81.99110 | 30826 ft | 479 kts | 301° |
| 2026-05-04 17:06 | 24.81972 | 81.90373 | 30838 ft | 481 kts | 301° |
| 2026-05-04 17:07 | 24.87412 | 81.82596 | 30820 ft | 481 kts | 301° |
| 2026-05-04 17:07 | 24.92160 | 81.75796 | 30819 ft | 481 kts | 301° |
| 2026-05-04 17:08 | 24.98287 | 81.67012 | 30803 ft | 480 kts | 301° |
| 2026-05-04 17:09 | 25.02335 | 81.61201 | 30825 ft | 479 kts | 302° |
| 2026-05-04 17:09 | 25.06396 | 81.55372 | 30823 ft | 478 kts | 302° |
| 2026-05-04 17:10 | 25.16470 | 81.40883 | 30820 ft | 476 kts | 302° |
| 2026-05-04 17:11 | 25.20526 | 81.35079 | 30815 ft | 477 kts | 302° |
| 2026-05-04 17:12 | 25.26660 | 81.26357 | 30820 ft | 479 kts | 302° |
| 2026-05-04 17:13 | 25.36877 | 81.11810 | 30817 ft | 480 kts | 302° |
| 2026-05-04 17:14 | 25.45036 | 81.00156 | 30803 ft | 480 kts | 302° |
| 2026-05-04 17:15 | 25.51160 | 80.91391 | 30813 ft | 479 kts | 302° |
| 2026-05-04 17:16 | 25.59287 | 80.79733 | 30807 ft | 478 kts | 302° |
| 2026-05-04 17:17 | 25.67390 | 80.68083 | 30817 ft | 478 kts | 302° |
| 2026-05-04 17:18 | 25.75499 | 80.56397 | 30807 ft | 477 kts | 302° |